Time;durP1;ratioP1;P1;durP2;ratioP2;P2;SDS_P1;SDS_P2;PMS_P1;PMS_P2;Temp;Humidity;BMP_temperature;BMP_pressure;BME280_temperature;BME280_humidity;BME280_pressure;Samples;Min_cycle;Max_cycle;Signal;HPM_P1;HPM_P2
2023/04/19 00:02:24;;;;;;;18.20;11.82;;;7.80;99.90;;;;;;4767262;30;20085;-69
2023/04/19 00:04:52;;;;;;;16.67;11.85;;;7.80;99.90;;;;;;4758845;30;20064;-67
2023/04/19 00:07:19;;;;;;;15.18;11.35;;;8.00;99.90;;;;;;4763974;30;20148;-68
2023/04/19 00:09:47;;;;;;;16.13;11.18;;;8.00;99.90;;;;;;4762671;30;20048;-68
2023/04/19 00:12:14;;;;;;;14.30;10.25;;;8.10;99.90;;;;;;4763198;30;20058;-69
2023/04/19 00:14:42;;;;;;;16.05;11.48;;;8.10;99.90;;;;;;4747565;30;20158;-69
2023/04/19 00:17:10;;;;;;;17.70;11.18;;;8.10;99.90;;;;;;4765361;30;20055;-68
2023/04/19 00:19:38;;;;;;;16.65;10.65;;;8.00;99.90;;;;;;4755326;30;20058;-69
2023/04/19 00:22:05;;;;;;;17.02;10.98;;;7.90;99.90;;;;;;4749136;30;20529;-69
2023/04/19 00:24:32;;;;;;;16.98;11.35;;;7.80;99.90;;;;;;4756493;30;20079;-69
2023/04/19 00:27:00;;;;;;;16.60;10.70;;;7.70;99.90;;;;;;4768860;30;20055;-69
2023/04/19 00:29:28;;;;;;;16.27;11.70;;;7.60;99.90;;;;;;4753195;30;20044;-69
2023/04/19 00:31:55;;;;;;;16.10;11.05;;;7.50;99.90;;;;;;4759681;30;20052;-69
2023/04/19 00:34:23;;;;;;;17.85;11.48;;;7.40;99.90;;;;;;4752745;30;20052;-69
2023/04/19 00:36:55;;;;;;;17.33;11.38;;;7.30;99.90;;;;;;4736784;30;20103;-69
2023/04/19 00:39:23;;;;;;;17.08;11.55;;;7.20;99.90;;;;;;4751106;30;20500;-69
2023/04/19 00:41:51;;;;;;;16.42;11.18;;;7.10;99.90;;;;;;4736918;30;20056;-68
2023/04/19 00:44:19;;;;;;;16.88;10.63;;;7.10;99.90;;;;;;4741919;30;20062;-68
2023/04/19 00:46:47;;;;;;;17.77;11.85;;;7.00;99.90;;;;;;4742625;30;20530;-69
2023/04/19 00:49:17;;;;;;;22.52;11.80;;;6.90;99.90;;;;;;4756042;30;20067;-69
2023/04/19 00:51:46;;;;;;;17.40;11.32;;;6.80;99.90;;;;;;4758232;30;20048;-69
2023/04/19 00:54:14;;;;;;;16.80;11.70;;;6.80;99.90;;;;;;4717762;30;20146;-68
2023/04/19 00:56:44;;;;;;;19.92;12.35;;;6.80;99.90;;;;;;4749115;30;20066;-68
2023/04/19 00:59:14;;;;;;;18.70;12.07;;;6.80;99.90;;;;;;4746177;30;20060;-68
2023/04/19 01:01:41;;;;;;;18.23;11.70;;;6.80;99.90;;;;;;4754819;30;20468;-69
2023/04/19 01:04:09;;;;;;;18.90;11.88;;;6.90;99.90;;;;;;4742573;30;20060;-68
2023/04/19 01:06:39;;;;;;;17.05;11.45;;;7.00;99.90;;;;;;4736973;30;20071;-69
2023/04/19 01:09:10;;;;;;;19.13;12.35;;;7.10;99.90;;;;;;4738565;30;20063;-68
2023/04/19 01:11:40;;;;;;;21.38;12.57;;;7.20;99.90;;;;;;4765477;30;20054;-68
2023/04/19 01:14:09;;;;;;;18.25;12.48;;;7.30;99.90;;;;;;4750066;30;20040;-68
2023/04/19 01:16:37;;;;;;;18.00;12.07;;;7.30;99.90;;;;;;4765835;30;20056;-68
2023/04/19 01:19:05;;;;;;;16.67;11.68;;;7.40;99.90;;;;;;4750213;30;20545;-69
2023/04/19 01:21:37;;;;;;;18.67;12.05;;;7.50;99.90;;;;;;4766159;30;20139;-68
2023/04/19 01:24:05;;;;;;;18.15;11.45;;;7.50;99.90;;;;;;4756903;30;20043;-69
2023/04/19 01:26:33;;;;;;;17.52;11.65;;;7.50;99.90;;;;;;4752205;30;20060;-68
2023/04/19 01:29:01;;;;;;;17.38;12.15;;;7.60;99.90;;;;;;4748545;30;20496;-68
2023/04/19 01:31:29;;;;;;;17.00;11.75;;;7.60;99.90;;;;;;4757383;30;20048;-68
2023/04/19 01:33:56;;;;;;;17.67;12.40;;;7.50;99.90;;;;;;4749890;30;20386;-68
2023/04/19 01:36:23;;;;;;;17.55;12.07;;;7.40;99.90;;;;;;4740497;30;20067;-68
2023/04/19 01:38:51;;;;;;;19.65;12.80;;;7.40;99.90;;;;;;4750317;30;20113;-68
2023/04/19 01:41:19;;;;;;;20.63;13.23;;;7.40;99.90;;;;;;4718909;30;20056;-69
2023/04/19 01:43:46;;;;;;;22.05;13.75;;;7.30;99.90;;;;;;4749014;30;20064;-69
2023/04/19 01:46:14;;;;;;;20.10;12.82;;;7.30;99.90;;;;;;4749036;30;20052;-69
2023/04/19 01:48:41;;;;;;;22.15;13.57;;;7.30;99.90;;;;;;4746042;30;20048;-69
2023/04/19 01:51:08;;;;;;;19.08;12.95;;;7.20;99.90;;;;;;4734153;30;20044;-68
2023/04/19 01:53:36;;;;;;;19.20;12.50;;;7.20;99.90;;;;;;4754799;30;20078;-68
2023/04/19 01:56:04;;;;;;;24.10;13.18;;;7.20;99.90;;;;;;4739111;30;20500;-68
2023/04/19 01:58:31;;;;;;;22.17;12.38;;;7.10;99.90;;;;;;4762955;30;20064;-69
2023/04/19 02:00:58;;;;;;;19.75;13.07;;;7.10;99.90;;;;;;4765352;30;20513;-68
2023/04/19 02:03:26;;;;;;;21.88;13.30;;;7.00;99.90;;;;;;4760454;30;20110;-68
2023/04/19 02:05:53;;;;;;;24.05;13.48;;;7.00;99.90;;;;;;4754392;30;20101;-68
2023/04/19 02:08:21;;;;;;;23.95;14.40;;;6.90;99.90;;;;;;4756945;30;20567;-69
2023/04/19 02:10:48;;;;;;;22.88;14.60;;;6.90;99.90;;;;;;4749923;30;20052;-68
2023/04/19 02:13:16;;;;;;;22.83;13.95;;;6.80;99.90;;;;;;4767911;30;20051;-68
2023/04/19 02:15:43;;;;;;;21.38;13.55;;;6.70;99.90;;;;;;4765680;30;20051;-68
2023/04/19 02:18:12;;;;;;;20.80;13.25;;;6.70;99.90;;;;;;4752903;30;20157;-66
2023/04/19 02:20:39;;;;;;;19.85;12.68;;;6.60;99.90;;;;;;4755250;30;20067;-67
2023/04/19 02:23:07;;;;;;;20.15;13.48;;;6.60;99.90;;;;;;4741876;30;20059;-68
2023/04/19 02:25:34;;;;;;;20.73;12.55;;;6.50;99.90;;;;;;4740944;30;20048;-69
2023/04/19 02:28:01;;;;;;;19.10;12.68;;;6.50;99.90;;;;;;4763243;30;20052;-68
2023/04/19 02:30:29;;;;;;;25.75;13.88;;;6.50;99.90;;;;;;4734656;30;20048;-68
2023/04/19 02:32:58;;;;;;;20.17;13.52;;;6.50;99.90;;;;;;4750400;30;20047;-68
2023/04/19 02:35:26;;;;;;;19.17;13.40;;;6.50;99.90;;;;;;4747440;30;20052;-68
2023/04/19 02:37:53;;;;;;;22.23;14.07;;;6.50;99.90;;;;;;4759865;30;20062;-68
2023/04/19 02:40:22;;;;;;;20.45;13.05;;;6.50;99.90;;;;;;4758968;30;20239;-69
2023/04/19 02:42:50;;;;;;;21.67;12.80;;;6.50;99.90;;;;;;4750687;30;20048;-69
2023/04/19 02:45:17;;;;;;;20.10;12.77;;;6.60;99.90;;;;;;4756704;30;20043;-69
2023/04/19 02:47:45;;;;;;;21.92;12.32;;;6.60;99.90;;;;;;4754013;30;20044;-69
2023/04/19 02:50:17;;;;;;;21.30;13.23;;;6.60;99.90;;;;;;4764277;30;20052;-69
2023/04/19 02:52:48;;;;;;;25.02;14.00;;;6.50;99.90;;;;;;4760379;30;20090;-69
2023/04/19 02:55:16;;;;;;;21.95;13.70;;;6.50;99.90;;;;;;4753263;30;20493;-69
2023/04/19 02:57:45;;;;;;;22.63;12.68;;;6.40;99.90;;;;;;4741085;30;20063;-69
2023/04/19 03:00:13;;;;;;;20.88;13.07;;;6.40;99.90;;;;;;4753972;30;20048;-69
2023/04/19 03:02:49;;;;;;;20.60;13.38;;;6.40;99.90;;;;;;4743416;30;20044;-69
2023/04/19 03:05:17;;;;;;;23.75;14.07;;;6.30;99.90;;;;;;4753572;30;20048;-69
2023/04/19 03:07:44;;;;;;;23.63;13.50;;;6.30;99.90;;;;;;4765144;30;20036;-69
2023/04/19 03:10:12;;;;;;;20.27;12.93;;;6.30;99.90;;;;;;4763388;30;20063;-69
2023/04/19 03:12:39;;;;;;;20.98;12.10;;;6.30;99.90;;;;;;4744005;30;20057;-69
2023/04/19 03:15:07;;;;;;;24.90;14.27;;;6.20;99.90;;;;;;4753987;30;20044;-69
2023/04/19 03:17:36;;;;;;;22.98;13.48;;;6.20;99.90;;;;;;4734433;30;20056;-69
2023/04/19 03:20:08;;;;;;;21.52;13.63;;;6.10;99.90;;;;;;4753817;30;20048;-69
2023/04/19 03:22:35;;;;;;;26.02;14.50;;;6.10;99.90;;;;;;4743337;30;20063;-69
2023/04/19 03:25:07;;;;;;;21.08;12.95;;;6.00;99.90;;;;;;4754102;30;20044;-68
2023/04/19 03:27:36;;;;;;;24.30;14.50;;;5.90;99.90;;;;;;4734343;30;20451;-68
2023/04/19 03:30:09;;;;;;;23.48;14.05;;;5.90;99.90;;;;;;4758283;30;20036;-68
2023/04/19 03:35:17;;;;;;;24.02;14.85;;;5.80;99.90;;;;;;5087728;28;20406;-44
2023/04/19 03:37:46;;;;;;;22.73;14.45;;;5.80;99.90;;;;;;5083777;28;20044;-43
2023/04/19 03:40:13;;;;;;;24.65;14.15;;;5.80;99.90;;;;;;5091006;28;20496;-42
2023/04/19 03:42:40;;;;;;;25.25;14.00;;;5.80;99.90;;;;;;5082804;28;20044;-41
2023/04/19 03:45:23;;;;;;;23.10;14.30;;;5.80;99.90;;;;;;5060109;28;20069;-43
2023/04/19 03:47:50;;;;;;;24.50;14.60;;;5.80;99.90;;;;;;5059215;22;20053;-53
2023/04/19 03:50:18;;;;;;;23.83;14.45;;;5.80;99.90;;;;;;5059619;28;20052;-53
2023/04/19 03:52:49;;;;;;;23.42;14.73;;;5.80;99.90;;;;;;5049797;28;20244;-53
2023/04/19 03:55:16;;;;;;;22.33;13.60;;;5.80;99.90;;;;;;5054492;28;20053;-48
2023/04/19 03:57:43;;;;;;;24.70;14.40;;;5.70;99.90;;;;;;5070024;28;20099;-50
2023/04/19 04:00:20;;;;;;;27.85;13.85;;;5.70;99.90;;;;;;5061946;28;20123;-50
2023/04/19 04:02:54;;;;;;;25.90;15.40;;;5.70;99.90;;;;;;5053291;28;20087;-49
2023/04/19 04:05:22;;;;;;;26.58;15.18;;;5.70;99.90;;;;;;5062342;28;20135;-50
2023/04/19 04:07:50;;;;;;;24.10;15.02;;;5.70;99.90;;;;;;5048218;28;20037;-48
2023/04/19 04:10:18;;;;;;;24.00;14.55;;;5.60;99.90;;;;;;5057118;28;20052;-49
2023/04/19 04:12:46;;;;;;;22.83;14.27;;;5.60;99.90;;;;;;5055470;28;20182;-51
2023/04/19 04:15:19;;;;;;;24.45;14.57;;;5.60;99.90;;;;;;5051147;28;20112;-46
2023/04/19 04:17:51;;;;;;;26.85;15.50;;;5.60;99.90;;;;;;5052457;28;20052;-44
2023/04/19 04:20:19;;;;;;;26.52;14.85;;;5.70;99.90;;;;;;5051487;28;20064;-45
2023/04/19 04:22:47;;;;;;;21.63;14.38;;;5.70;99.90;;;;;;5053383;28;20068;-49
2023/04/19 04:25:17;;;;;;;23.05;14.07;;;5.80;99.90;;;;;;5051394;28;20124;-50
2023/04/19 04:27:49;;;;;;;25.95;15.30;;;5.90;99.90;;;;;;5053856;28;20467;-50
2023/04/19 04:30:18;;;;;;;;;;;6.00;99.90;;;;;;5062295;28;20149;-51
2023/04/19 04:32:46;;;;;;;26.50;14.68;;;6.10;99.90;;;;;;5049016;28;20003;-46
2023/04/19 04:35:14;;;;;;;24.73;14.10;;;6.20;99.90;;;;;;5064150;28;20044;-49
2023/04/19 04:37:54;;;;;;;27.73;15.70;;;6.30;99.90;;;;;;5057888;28;20041;-49
2023/04/19 04:40:22;;;;;;;25.13;14.40;;;6.40;99.90;;;;;;5057504;28;20038;-47
2023/04/19 04:42:51;;;;;;;23.33;13.98;;;6.40;99.90;;;;;;5065755;28;20047;-48
2023/04/19 04:45:20;;;;;;;22.90;14.40;;;6.40;99.90;;;;;;5047789;28;20718;-51
2023/04/19 04:47:48;;;;;;;21.58;13.15;;;6.40;99.90;;;;;;5029685;28;20079;-48
2023/04/19 04:50:17;;;;;;;22.85;14.30;;;6.50;99.90;;;;;;5027493;28;20510;-48
2023/04/19 04:52:44;;;;;;;22.10;13.73;;;6.50;99.90;;;;;;5029753;28;20099;-46
2023/04/19 04:55:17;;;;;;;23.83;13.82;;;6.60;99.90;;;;;;5043502;28;20059;-51
2023/04/19 04:57:44;;;;;;;22.35;14.02;;;6.70;99.90;;;;;;5048074;28;20107;-47
2023/04/19 05:00:24;;;;;;;22.40;14.00;;;6.80;99.90;;;;;;5038454;28;20538;-46
2023/04/19 05:03:02;;;;;;;23.15;13.90;;;6.70;99.90;;;;;;5036358;28;20135;-49
2023/04/19 05:05:33;;;;;;;22.30;13.80;;;6.80;99.90;;;;;;5024175;28;20052;-48
2023/04/19 05:08:00;;;;;;;22.73;13.48;;;6.90;99.90;;;;;;5030074;28;20077;-50
2023/04/19 05:10:28;;;;;;;44.47;24.50;;;6.90;99.90;;;;;;5028209;28;20077;-46
2023/04/19 05:12:56;;;;;;;32.78;19.27;;;7.00;99.90;;;;;;5030211;28;20042;-48
2023/04/19 05:15:23;;;;;;;23.27;14.40;;;7.10;99.90;;;;;;5030032;28;20038;-50
2023/04/19 05:17:54;;;;;;;23.42;14.68;;;7.20;99.90;;;;;;5020657;28;20034;-54
2023/04/19 05:20:21;;;;;;;22.55;13.85;;;7.30;99.90;;;;;;5026142;28;20525;-48
2023/04/19 05:22:59;;;;;;;26.15;13.98;;;7.40;99.90;;;;;;5028318;28;20049;-49
2023/04/19 05:25:26;;;;;;;20.55;13.75;;;7.50;99.90;;;;;;5026554;28;20521;-50
2023/04/19 05:27:56;;;;;;;22.00;13.57;;;7.60;99.90;;;;;;5030734;28;20069;-50
2023/04/19 05:30:25;;;;;;;24.58;13.50;;;7.60;99.90;;;;;;5030231;28;20050;-49
2023/04/19 05:32:52;;;;;;;23.10;14.73;;;7.60;99.90;;;;;;5029437;28;20133;-52
2023/04/19 05:35:20;;;;;;;22.50;13.38;;;7.70;99.90;;;;;;5029506;28;20060;-45
2023/04/19 05:37:47;;;;;;;25.08;13.52;;;7.70;99.90;;;;;;5028687;28;20038;-50
2023/04/19 05:40:15;;;;;;;18.88;12.50;;;7.80;99.90;;;;;;5026426;28;20234;-51
2023/04/19 05:42:42;;;;;;;21.95;13.77;;;7.80;99.90;;;;;;5018809;28;20802;-48
2023/04/19 05:45:10;;;;;;;22.27;14.68;;;7.80;99.90;;;;;;5037070;28;20517;-46
2023/04/19 05:47:38;;;;;;;23.50;13.60;;;7.80;99.90;;;;;;5023978;28;20129;-48
2023/04/19 05:50:35;;;;;;;25.38;13.35;;;7.80;99.90;;;;;;5000145;28;20136;-46
2023/04/19 05:53:29;;;;;;;25.60;13.68;;;7.80;99.90;;;;;;5000696;28;20053;-52
2023/04/19 05:55:56;;;;;;;36.38;14.77;;;7.90;99.90;;;;;;5001096;28;20057;-51
2023/04/19 05:58:24;;;;;;;61.20;16.83;;;7.80;99.90;;;;;;4999061;28;20050;-49
2023/04/19 06:00:52;;;;;;;104.60;18.33;;;7.80;99.90;;;;;;4989713;28;20542;-51
2023/04/19 06:03:21;;;;;;;110.72;19.05;;;7.80;99.90;;;;;;4998846;28;20049;-49
2023/04/19 06:05:49;;;;;;;102.68;19.13;;;7.80;99.90;;;;;;4986597;28;20046;-49
2023/04/19 06:08:17;;;;;;;101.97;20.58;;;7.80;99.90;;;;;;4989632;28;20066;-47
2023/04/19 06:10:46;;;;;;;117.97;20.45;;;7.90;99.90;;;;;;5000652;28;20160;-49
2023/04/19 06:13:24;;;;;;;98.60;21.50;;;8.00;99.90;;;;;;4994218;28;20132;-50
2023/04/19 06:15:51;;;;;;;82.13;19.38;;;8.10;99.90;;;;;;4977159;28;20049;-48
2023/04/19 06:18:19;;;;;;;69.68;16.77;;;8.20;99.90;;;;;;4994977;28;20124;-52
2023/04/19 06:20:46;;;;;;;52.20;16.50;;;8.20;99.90;;;;;;4999186;28;20044;-49
2023/04/19 06:23:14;;;;;;;32.17;15.10;;;8.20;99.90;;;;;;4996637;28;20427;-46
2023/04/19 06:25:41;;;;;;;32.83;13.98;;;8.20;99.90;;;;;;4994591;28;20066;-47
2023/04/19 06:28:09;;;;;;;26.58;15.50;;;8.30;99.90;;;;;;5026912;28;20053;-50
2023/04/19 06:30:36;;;;;;;25.90;14.93;;;8.30;99.90;;;;;;5028545;28;20072;-51
2023/04/19 06:33:04;;;;;;;21.65;14.13;;;8.40;99.90;;;;;;5036334;28;20107;-47
2023/04/19 06:35:32;;;;;;;22.33;14.38;;;8.50;99.90;;;;;;5024106;28;20033;-50
2023/04/19 06:37:59;;;;;;;23.05;14.27;;;8.50;99.90;;;;;;5029426;28;20822;-47
2023/04/19 06:40:30;;;;;;;23.55;14.30;;;8.50;99.90;;;;;;5029112;28;20052;-45
2023/04/19 06:42:57;;;;;;;22.73;14.07;;;8.60;99.90;;;;;;5022164;28;20447;-49
2023/04/19 06:45:25;;;;;;;25.85;15.75;;;8.70;99.90;;;;;;5029916;28;20050;-50
2023/04/19 06:47:52;;;;;;;25.95;15.05;;;8.60;99.90;;;;;;5023070;28;20100;-46
2023/04/19 06:50:20;;;;;;;23.27;14.77;;;8.60;99.90;;;;;;5024379;28;20095;-47
2023/04/19 06:52:47;;;;;;;24.55;14.27;;;8.70;99.90;;;;;;5024582;28;20041;-49
2023/04/19 06:55:14;;;;;;;25.35;14.77;;;8.70;99.90;;;;;;5026310;28;20510;-51
2023/04/19 06:57:43;;;;;;;22.52;14.25;;;8.60;99.90;;;;;;5025804;28;20128;-47
2023/04/19 07:00:10;;;;;;;22.00;14.40;;;8.70;99.90;;;;;;5029862;28;20044;-52
2023/04/19 07:02:38;;;;;;;22.55;15.02;;;8.70;99.90;;;;;;5031199;28;20530;-50
2023/04/19 07:05:06;;;;;;;26.25;15.68;;;8.80;99.90;;;;;;5038750;28;20496;-49
2023/04/19 07:07:36;;;;;;;28.60;16.00;;;8.80;99.90;;;;;;5040991;28;20061;-46
2023/04/19 07:10:04;;;;;;;24.70;14.63;;;8.90;99.90;;;;;;5032829;28;20132;-47
2023/04/19 07:12:32;;;;;;;31.58;15.20;;;9.00;99.90;;;;;;5021934;28;20051;-50
2023/04/19 07:14:59;;;;;;;22.92;14.20;;;9.10;99.90;;;;;;5037155;28;20060;-50
2023/04/19 07:17:26;;;;;;;23.77;15.38;;;9.20;99.90;;;;;;5031517;28;20100;-43
2023/04/19 07:19:55;;;;;;;26.38;15.88;;;9.30;99.90;;;;;;5027750;28;20048;-49
2023/04/19 07:22:22;;;;;;;26.27;17.52;;;9.40;99.90;;;;;;5028334;28;20053;-49
2023/04/19 07:24:51;;;;;;;28.27;17.02;;;9.50;99.90;;;;;;5038143;28;20444;-48
2023/04/19 07:27:18;;;;;;;26.65;17.05;;;9.70;99.90;;;;;;5037543;28;20408;-48
2023/04/19 07:29:45;;;;;;;30.27;19.33;;;9.80;99.90;;;;;;5043266;28;20053;-50
2023/04/19 07:32:14;;;;;;;26.67;16.58;;;9.90;99.90;;;;;;5034553;28;20057;-47
2023/04/19 07:34:42;;;;;;;29.60;17.88;;;10.00;99.90;;;;;;5044596;28;20056;-47
2023/04/19 07:37:09;;;;;;;34.22;18.25;;;10.00;99.90;;;;;;5036615;28;20065;-45
2023/04/19 07:39:37;;;;;;;30.38;17.95;;;10.00;99.90;;;;;;5037179;28;20156;-49
2023/04/19 07:42:04;;;;;;;32.00;19.80;;;10.10;99.90;;;;;;5038422;28;20404;-52
2023/04/19 07:44:32;;;;;;;32.63;20.17;;;10.00;99.90;;;;;;5039215;28;20041;-45
2023/04/19 07:46:59;;;;;;;33.33;20.67;;;10.00;99.90;;;;;;5047289;28;20497;-46
2023/04/19 07:49:28;;;;;;;35.30;20.35;;;10.00;99.90;;;;;;5041071;28;20073;-49
2023/04/19 07:51:55;;;;;;;31.00;19.35;;;10.00;99.90;;;;;;5041349;28;20044;-53
2023/04/19 07:54:22;;;;;;;34.17;20.05;;;10.00;99.90;;;;;;5046826;28;20049;-49
2023/04/19 07:56:50;;;;;;;38.13;21.52;;;9.90;99.90;;;;;;5036297;28;20129;-48
2023/04/19 07:59:17;;;;;;;29.77;20.35;;;10.00;99.90;;;;;;5035490;28;20614;-50
2023/04/19 08:01:44;;;;;;;32.97;20.38;;;10.10;99.90;;;;;;5046639;28;20053;-48
2023/04/19 08:04:12;;;;;;;31.75;20.58;;;10.10;99.90;;;;;;5047679;28;20059;-48
2023/04/19 08:06:40;;;;;;;31.65;20.13;;;10.10;99.90;;;;;;5048271;28;20041;-49
2023/04/19 08:09:07;;;;;;;28.10;19.33;;;10.20;99.90;;;;;;5033615;28;20041;-49
2023/04/19 08:11:35;;;;;;;30.08;19.38;;;10.20;99.90;;;;;;5028921;28;20133;-46
2023/04/19 08:14:02;;;;;;;29.33;19.13;;;10.40;99.90;;;;;;5036410;28;20065;-46
2023/04/19 08:16:48;;;;;;;30.55;18.88;;;10.30;99.90;;;;;;5044241;28;20197;-49
2023/04/19 08:19:18;;;;;;;32.53;19.75;;;10.40;99.90;;;;;;5035268;28;20041;-47
2023/04/19 08:21:45;;;;;;;29.45;19.35;;;10.40;99.90;;;;;;5040209;28;20680;-49
2023/04/19 08:24:12;;;;;;;31.38;19.30;;;10.20;99.90;;;;;;5046827;28;20424;-45
2023/04/19 08:26:41;;;;;;;29.65;18.45;;;10.10;99.90;;;;;;5042818;28;20164;-49
2023/04/19 08:29:08;;;;;;;28.85;18.25;;;10.20;99.90;;;;;;5051386;28;20051;-49
2023/04/19 08:31:36;;;;;;;27.05;18.23;;;10.20;99.90;;;;;;5043227;28;20532;-46
2023/04/19 08:34:03;;;;;;;27.70;18.45;;;10.20;99.90;;;;;;5045834;28;20103;-48
2023/04/19 08:36:30;;;;;;;27.63;18.75;;;10.30;99.90;;;;;;5027652;28;20038;-48
2023/04/19 08:39:07;;;;;;;27.40;18.20;;;10.40;99.90;;;;;;5034130;28;20073;-47
2023/04/19 08:41:51;;;;;;;29.48;18.65;;;10.40;99.90;;;;;;5027318;28;20124;-48
2023/04/19 08:44:31;;;;;;;32.95;21.08;;;10.30;99.90;;;;;;5032985;28;20099;-47
2023/04/19 08:47:04;;;;;;;33.22;20.17;;;10.10;99.90;;;;;;5031628;28;20044;-50
2023/04/19 08:49:35;;;;;;;30.90;19.48;;;10.10;99.90;;;;;;5041056;28;20069;-47
2023/04/19 08:52:07;;;;;;;27.73;20.20;;;10.10;99.90;;;;;;5042464;28;20124;-47
2023/04/19 08:54:35;;;;;;;29.50;19.05;;;10.00;99.90;;;;;;5043478;28;20053;-51
2023/04/19 08:57:02;;;;;;;28.13;18.70;;;10.00;99.90;;;;;;5044712;28;20053;-46
2023/04/19 08:59:30;;;;;;;25.63;18.45;;;9.90;99.90;;;;;;5040625;28;20057;-50
2023/04/19 09:02:01;;;;;;;26.85;18.45;;;9.80;99.90;;;;;;5047375;28;20057;-50
2023/04/19 09:04:28;;;;;;;25.98;18.40;;;9.70;99.90;;;;;;5048232;28;20037;-45
2023/04/19 09:07:03;;;;;;;29.02;18.45;;;9.80;99.90;;;;;;5041433;28;20045;-49
2023/04/19 09:09:31;;;;;;;27.25;18.30;;;9.80;99.90;;;;;;5026235;28;20693;-47
2023/04/19 09:12:16;;;;;;;27.05;18.15;;;9.90;99.90;;;;;;5039322;28;20132;-45
2023/04/19 09:14:46;;;;;;;28.42;19.25;;;9.80;99.90;;;;;;5051981;28;20052;-51
2023/04/19 09:17:30;;;;;;;28.05;19.20;;;9.70;99.90;;;;;;5042944;28;20119;-48
2023/04/19 09:19:57;;;;;;;26.77;18.40;;;9.80;99.90;;;;;;5042098;28;20036;-46
2023/04/19 09:22:25;;;;;;;26.13;17.67;;;9.90;99.90;;;;;;5038887;28;20045;-47
2023/04/19 09:24:52;;;;;;;23.42;16.80;;;9.90;99.90;;;;;;5042940;28;20037;-47
2023/04/19 09:27:31;;;;;;;21.10;15.18;;;10.00;99.90;;;;;;5052509;28;20104;-46
2023/04/19 09:30:00;;;;;;;23.50;15.48;;;9.90;99.90;;;;;;5028633;28;20381;-49
2023/04/19 09:32:28;;;;;;;19.48;14.00;;;9.80;99.90;;;;;;5052236;28;20534;-48
2023/04/19 09:34:57;;;;;;;22.85;14.18;;;9.70;99.90;;;;;;5051608;28;20063;-46
2023/04/19 09:37:25;;;;;;;20.30;14.10;;;9.70;99.90;;;;;;5043681;28;20043;-47
2023/04/19 09:40:21;;;;;;;21.83;13.75;;;9.80;99.90;;;;;;5051660;28;20060;-49
2023/04/19 09:42:49;;;;;;;18.77;13.73;;;9.90;99.90;;;;;;5034046;28;20048;-51
2023/04/19 09:45:19;;;;;;;16.88;12.55;;;10.00;99.90;;;;;;5040113;28;20041;-47
2023/04/19 09:48:03;;;;;;;17.40;11.90;;;10.10;99.90;;;;;;5052834;22;20035;-37
2023/04/19 09:50:31;;;;;;;19.25;12.45;;;10.10;99.90;;;;;;5049752;28;20444;-38
2023/04/19 09:53:05;;;;;;;19.20;12.18;;;10.20;99.90;;;;;;5039845;28;20082;-37
2023/04/19 09:55:36;;;;;;;21.42;13.50;;;10.30;99.90;;;;;;5045949;28;20041;-38
2023/04/19 09:58:23;;;;;;;19.30;13.20;;;10.30;99.90;;;;;;5047338;28;20094;-38
2023/04/19 10:00:59;;;;;;;18.55;12.45;;;10.30;99.90;;;;;;5045166;28;20498;-38
2023/04/19 10:03:43;;;;;;;21.30;12.93;;;10.40;99.90;;;;;;5042178;28;20417;-39
2023/04/19 10:06:17;;;;;;;24.65;14.38;;;10.60;99.90;;;;;;5046489;28;20033;-39
2023/04/19 10:08:49;;;;;;;20.83;13.10;;;10.80;99.90;;;;;;5042987;28;20048;-39
2023/04/19 10:11:20;;;;;;;20.25;12.93;;;11.10;99.90;;;;;;5050516;28;20079;-39
2023/04/19 10:13:49;;;;;;;19.92;12.85;;;11.40;99.90;;;;;;5041474;28;20049;-38
2023/04/19 10:16:16;;;;;;;18.05;12.05;;;11.60;99.90;;;;;;5031420;28;20052;-37
2023/04/19 10:18:49;;;;;;;17.02;11.45;;;11.70;99.90;;;;;;5048368;28;20532;-39
2023/04/19 10:21:18;;;;;;;18.05;12.30;;;11.90;99.90;;;;;;5029886;28;20048;-39
2023/04/19 10:23:46;;;;;;;17.30;11.13;;;12.10;99.90;;;;;;5044024;28;20049;-42
2023/04/19 10:26:13;;;;;;;18.75;12.77;;;12.30;99.90;;;;;;5042646;28;20117;-39
2023/04/19 10:28:41;;;;;;;16.38;10.77;;;12.50;99.90;;;;;;5041155;28;20576;-41
2023/04/19 10:31:12;;;;;;;16.35;10.18;;;12.80;99.90;;;;;;5039936;28;20076;-38
2023/04/19 10:33:40;;;;;;;14.57;10.85;;;13.40;99.90;;;;;;5034024;28;20056;-39
2023/04/19 10:36:09;;;;;;;13.45;9.63;;;14.30;99.90;;;;;;5036405;28;20045;-41
2023/04/19 10:38:46;;;;;;;13.82;9.77;;;15.20;99.90;;;;;;5039772;28;20413;-38
2023/04/19 10:41:16;;;;;;;16.73;9.50;;;16.10;99.90;;;;;;5043654;28;20514;-38
2023/04/19 10:43:57;;;;;;;16.23;10.55;;;16.60;99.90;;;;;;5046488;28;20568;-40
2023/04/19 10:46:24;;;;;;;13.07;10.20;;;17.10;99.90;;;;;;5044242;28;20472;-39
2023/04/19 10:48:52;;;;;;;14.85;11.02;;;17.10;99.90;;;;;;5029612;28;20052;-39
2023/04/19 10:51:27;;;;;;;13.35;9.50;;;17.40;99.90;;;;;;5036429;28;20051;-39
2023/04/19 10:53:55;;;;;;;11.32;8.73;;;17.80;99.90;;;;;;5037949;28;20049;-38
2023/04/19 10:56:34;;;;;;;14.63;8.95;;;17.70;99.90;;;;;;5044198;28;20045;-39
2023/04/19 10:59:10;;;;;;;11.68;8.93;;;17.40;99.90;;;;;;5033728;28;20098;-39
2023/04/19 11:02:05;;;;;;;12.13;9.07;;;16.70;99.90;;;;;;5038965;28;20046;-41
2023/04/19 11:04:35;;;;;;;13.88;8.60;;;16.50;99.90;;;;;;5041936;28;20049;-39
2023/04/19 11:07:06;;;;;;;10.75;8.45;;;16.10;99.90;;;;;;5045402;28;20037;-40
2023/04/19 11:09:38;;;;;;;13.00;9.30;;;15.70;99.90;;;;;;5040587;28;20501;-39
2023/04/19 11:12:07;;;;;;;15.95;11.45;;;15.70;99.90;;;;;;5043942;28;20057;-40
2023/04/19 11:14:40;;;;;;;13.65;10.05;;;15.60;99.90;;;;;;5045991;28;20152;-40
2023/04/19 11:17:38;;;;;;;10.43;8.13;;;16.30;99.90;;;;;;5035904;28;20048;-40
2023/04/19 11:20:10;;;;;;;10.95;8.38;;;17.20;99.90;;;;;;5018396;28;20045;-38
2023/04/19 11:22:44;;;;;;;9.15;7.30;;;18.00;99.90;;;;;;5036082;28;20045;-40
2023/04/19 11:25:20;;;;;;;9.63;7.40;;;18.50;99.90;;;;;;5028908;28;20091;-43
2023/04/19 11:27:51;;;;;;;10.75;8.20;;;18.60;99.90;;;;;;5027385;28;20042;-39
2023/04/19 11:30:27;;;;;;;;;;;18.70;99.90;;;;;;5035569;28;20061;-40
2023/04/19 11:32:55;;;;;;;9.85;8.20;;;18.90;99.90;;;;;;5037318;28;19939;-40
2023/04/19 11:35:25;;;;;;;12.00;8.45;;;18.40;99.90;;;;;;5030612;28;20049;-40
2023/04/19 11:37:53;;;;;;;10.18;8.25;;;18.00;99.90;;;;;;5032092;28;20071;-39
2023/04/19 11:40:22;;;;;;;9.68;7.63;;;18.00;99.90;;;;;;5041306;28;20136;-39
2023/04/19 11:42:54;;;;;;;11.27;8.20;;;17.90;99.90;;;;;;5043426;28;20063;-40
2023/04/19 11:45:28;;;;;;;15.23;9.75;;;17.50;99.90;;;;;;5049483;28;20139;-39
2023/04/19 11:48:00;;;;;;;9.05;6.57;;;17.00;99.90;;;;;;5026359;28;20060;-38
2023/04/19 11:50:34;;;;;;;8.95;7.35;;;16.40;99.90;;;;;;5045490;28;20128;-38
2023/04/19 11:53:20;;;;;;;10.35;7.82;;;16.50;99.90;;;;;;5047990;28;20132;-38
2023/04/19 11:55:57;;;;;;;8.52;7.38;;;16.40;99.90;;;;;;5034315;28;20140;-39
2023/04/19 11:58:35;;;;;;;9.82;6.97;;;17.00;99.90;;;;;;5044092;28;20065;-39
2023/04/19 12:01:11;;;;;;;8.73;7.35;;;17.20;99.90;;;;;;5025945;28;20041;-41
2023/04/19 12:03:48;;;;;;;8.25;7.35;;;18.00;99.90;;;;;;5050528;28;20111;-39
2023/04/19 12:06:25;;;;;;;7.75;6.35;;;19.30;99.90;;;;;;5043595;28;20108;-38
2023/04/19 12:08:54;;;;;;;10.75;6.07;;;19.50;99.20;;;;;;5037232;28;20094;-40
2023/04/19 12:11:40;;;;;;;7.18;6.00;;;20.20;97.80;;;;;;5038680;28;20133;-39
2023/04/19 12:14:15;;;;;;;11.45;6.90;;;20.30;95.90;;;;;;5048125;28;20060;-45
2023/04/19 12:16:46;;;;;;;6.93;6.10;;;20.20;95.20;;;;;;5038460;28;20076;-40
2023/04/19 12:19:19;;;;;;;9.57;6.60;;;19.80;93.30;;;;;;5053374;28;20103;-39
2023/04/19 12:21:46;;;;;;;7.70;5.57;;;19.30;93.80;;;;;;5031640;28;20318;-39
2023/04/19 12:24:15;;;;;;;7.05;6.35;;;18.60;94.20;;;;;;5036576;28;20103;-39
2023/04/19 12:26:56;;;;;;;8.20;5.82;;;19.20;95.50;;;;;;5043049;28;20549;-39
2023/04/19 12:29:44;;;;;;;7.32;5.43;;;19.20;93.70;;;;;;5054463;28;20044;-37
2023/04/19 12:32:14;;;;;;;5.88;5.10;;;18.60;93.60;;;;;;5033618;28;20057;-38
2023/04/19 12:34:42;;;;;;;6.25;5.50;;;17.60;93.90;;;;;;5042894;28;20422;-39
2023/04/19 12:37:09;;;;;;;6.00;5.32;;;16.90;95.00;;;;;;5045883;28;20073;-39
2023/04/19 12:39:37;;;;;;;7.68;5.20;;;17.60;95.10;;;;;;5039565;28;20072;-39
2023/04/19 12:42:05;;;;;;;5.90;5.13;;;17.90;93.30;;;;;;5053656;28;20365;-38
2023/04/19 12:44:32;;;;;;;7.00;4.93;;;17.20;93.10;;;;;;5042273;28;20545;-38
2023/04/19 12:46:59;;;;;;;7.78;6.30;;;17.20;94.60;;;;;;5037352;28;20060;-38
2023/04/19 12:49:26;;;;;;;5.88;4.82;;;17.40;93.10;;;;;;5044543;28;20060;-40
2023/04/19 12:51:54;;;;;;;5.22;4.70;;;17.60;92.70;;;;;;5035430;28;20140;-37
2023/04/19 12:54:23;;;;;;;7.32;4.40;;;18.10;93.20;;;;;;5045375;28;20422;-38